sensor_id;sensor_type;location;lat;lon;timestamp;P1;durP1;ratioP1;P2;durP2;ratioP2
73599;SDS011;61877;48.246;9.220;2023-09-30T05:26:59;15.57;;;4.60;;
73599;SDS011;61877;48.246;9.220;2023-09-30T05:29:24;12.23;;;4.10;;
73599;SDS011;61877;48.246;9.220;2023-09-30T05:31:50;15.27;;;4.53;;
73599;SDS011;61877;48.246;9.220;2023-09-30T05:34:22;13.10;;;4.30;;
73599;SDS011;61877;48.246;9.220;2023-09-30T05:36:56;13.77;;;4.35;;
73599;SDS011;61877;48.246;9.220;2023-09-30T05:39:24;15.98;;;4.72;;
73599;SDS011;61877;48.246;9.220;2023-09-30T05:41:59;14.38;;;4.60;;
73599;SDS011;61877;48.246;9.220;2023-09-30T05:44:41;12.57;;;4.00;;
73599;SDS011;61877;48.246;9.220;2023-09-30T05:47:08;14.48;;;4.45;;
73599;SDS011;61877;48.246;9.220;2023-09-30T05:49:36;11.98;;;3.85;;
73599;SDS011;61877;48.246;9.220;2023-09-30T05:52:12;13.73;;;4.18;;
73599;SDS011;61877;48.246;9.220;2023-09-30T05:54:38;12.88;;;4.57;;
73599;SDS011;61877;48.246;9.220;2023-09-30T05:57:04;14.30;;;4.23;;
73599;SDS011;61877;48.246;9.220;2023-09-30T05:59:35;12.48;;;4.20;;
73599;SDS011;61877;48.246;9.220;2023-09-30T06:11:15;12.20;;;4.10;;
73599;SDS011;61877;48.246;9.220;2023-09-30T06:13:44;12.30;;;4.50;;
73599;SDS011;61877;48.246;9.220;2023-09-30T06:16:10;12.32;;;4.70;;
73599;SDS011;61877;48.246;9.220;2023-09-30T06:18:51;14.23;;;4.45;;
73599;SDS011;61877;48.246;9.220;2023-09-30T06:21:19;12.10;;;4.30;;
73599;SDS011;61877;48.246;9.220;2023-09-30T06:23:46;13.80;;;4.10;;
73599;SDS011;61877;48.246;9.220;2023-09-30T06:32:09;12.65;;;4.30;;
73599;SDS011;61877;48.246;9.220;2023-09-30T06:34:44;12.23;;;4.30;;
73599;SDS011;61877;48.246;9.220;2023-09-30T06:37:10;14.55;;;4.55;;
73599;SDS011;61877;48.246;9.220;2023-09-30T06:39:51;14.47;;;4.77;;
73599;SDS011;61877;48.246;9.220;2023-09-30T06:42:18;13.80;;;4.38;;
73599;SDS011;61877;48.246;9.220;2023-09-30T06:44:46;14.00;;;4.70;;
73599;SDS011;61877;48.246;9.220;2023-09-30T06:47:12;14.63;;;4.60;;
73599;SDS011;61877;48.246;9.220;2023-09-30T06:49:43;11.80;;;4.40;;
73599;SDS011;61877;48.246;9.220;2023-09-30T06:52:24;14.57;;;4.85;;
73599;SDS011;61877;48.246;9.220;2023-09-30T06:58:01;13.57;;;4.88;;
73599;SDS011;61877;48.246;9.220;2023-09-30T07:00:54;12.93;;;4.47;;
73599;SDS011;61877;48.246;9.220;2023-09-30T07:03:20;15.23;;;5.15;;
73599;SDS011;61877;48.246;9.220;2023-09-30T07:06:07;14.93;;;4.97;;
73599;SDS011;61877;48.246;9.220;2023-09-30T07:08:37;14.05;;;4.68;;
73599;SDS011;61877;48.246;9.220;2023-09-30T07:11:05;14.32;;;5.60;;
73599;SDS011;61877;48.246;9.220;2023-09-30T07:13:38;13.97;;;4.93;;
73599;SDS011;61877;48.246;9.220;2023-09-30T07:16:09;13.82;;;4.60;;
73599;SDS011;61877;48.246;9.220;2023-09-30T07:24:02;13.85;;;4.68;;
73599;SDS011;61877;48.246;9.220;2023-09-30T07:26:28;13.68;;;4.70;;
73599;SDS011;61877;48.246;9.220;2023-09-30T07:28:54;13.50;;;4.57;;
73599;SDS011;61877;48.246;9.220;2023-09-30T07:31:53;15.27;;;4.87;;
73599;SDS011;61877;48.246;9.220;2023-09-30T07:37:23;13.98;;;4.85;;
73599;SDS011;61877;48.246;9.220;2023-09-30T07:42:56;11.63;;;4.55;;
73599;SDS011;61877;48.246;9.220;2023-09-30T07:48:16;13.23;;;4.70;;
73599;SDS011;61877;48.246;9.220;2023-09-30T07:50:46;12.70;;;4.33;;
73599;SDS011;61877;48.246;9.220;2023-09-30T07:53:30;17.85;;;7.00;;
73599;SDS011;61877;48.246;9.220;2023-09-30T07:55:56;13.67;;;5.10;;
73599;SDS011;61877;48.246;9.220;2023-09-30T07:58:21;13.00;;;5.50;;
73599;SDS011;61877;48.246;9.220;2023-09-30T08:00:47;14.30;;;5.40;;
73599;SDS011;61877;48.246;9.220;2023-09-30T08:03:12;14.67;;;5.37;;
73599;SDS011;61877;48.246;9.220;2023-09-30T08:05:39;12.97;;;4.50;;
73599;SDS011;61877;48.246;9.220;2023-09-30T08:08:04;11.27;;;3.90;;
73599;SDS011;61877;48.246;9.220;2023-09-30T08:10:30;10.85;;;3.75;;
73599;SDS011;61877;48.246;9.220;2023-09-30T08:12:55;8.27;;;3.10;;
73599;SDS011;61877;48.246;9.220;2023-09-30T08:15:20;10.10;;;3.30;;
73599;SDS011;61877;48.246;9.220;2023-09-30T08:17:47;9.70;;;3.30;;
73599;SDS011;61877;48.246;9.220;2023-09-30T08:20:13;10.55;;;3.45;;
73599;SDS011;61877;48.246;9.220;2023-09-30T08:22:40;10.37;;;3.70;;
73599;SDS011;61877;48.246;9.220;2023-09-30T08:25:05;9.18;;;3.30;;
73599;SDS011;61877;48.246;9.220;2023-09-30T08:27:31;9.50;;;3.28;;
73599;SDS011;61877;48.246;9.220;2023-09-30T08:30:01;9.43;;;3.13;;
73599;SDS011;61877;48.246;9.220;2023-09-30T08:32:26;9.40;;;3.17;;
73599;SDS011;61877;48.246;9.220;2023-09-30T08:34:51;9.23;;;3.23;;
73599;SDS011;61877;48.246;9.220;2023-09-30T08:37:17;10.70;;;3.57;;
73599;SDS011;61877;48.246;9.220;2023-09-30T08:39:44;9.77;;;3.40;;
73599;SDS011;61877;48.246;9.220;2023-09-30T08:42:10;9.70;;;3.70;;
73599;SDS011;61877;48.246;9.220;2023-09-30T08:44:36;9.85;;;3.30;;
73599;SDS011;61877;48.246;9.220;2023-09-30T08:47:03;8.75;;;2.97;;
73599;SDS011;61877;48.246;9.220;2023-09-30T08:49:29;9.07;;;3.17;;
73599;SDS011;61877;48.246;9.220;2023-09-30T08:51:54;10.30;;;3.40;;
73599;SDS011;61877;48.246;9.220;2023-09-30T08:54:22;9.55;;;3.20;;
73599;SDS011;61877;48.246;9.220;2023-09-30T08:56:49;9.60;;;3.20;;
73599;SDS011;61877;48.246;9.220;2023-09-30T08:59:14;9.00;;;3.35;;
73599;SDS011;61877;48.246;9.220;2023-09-30T09:01:40;9.43;;;3.30;;
73599;SDS011;61877;48.246;9.220;2023-09-30T09:04:05;10.10;;;3.30;;
73599;SDS011;61877;48.246;9.220;2023-09-30T09:06:32;9.10;;;2.93;;
73599;SDS011;61877;48.246;9.220;2023-09-30T09:09:12;9.93;;;3.40;;
73599;SDS011;61877;48.246;9.220;2023-09-30T09:11:38;10.33;;;3.47;;
73599;SDS011;61877;48.246;9.220;2023-09-30T09:14:05;10.32;;;3.20;;
73599;SDS011;61877;48.246;9.220;2023-09-30T09:16:30;10.07;;;3.17;;
73599;SDS011;61877;48.246;9.220;2023-09-30T09:18:55;10.23;;;3.50;;
73599;SDS011;61877;48.246;9.220;2023-09-30T09:21:21;9.40;;;3.40;;
73599;SDS011;61877;48.246;9.220;2023-09-30T09:23:47;10.07;;;3.35;;
73599;SDS011;61877;48.246;9.220;2023-09-30T09:26:22;9.50;;;3.28;;
73599;SDS011;61877;48.246;9.220;2023-09-30T09:28:49;10.73;;;3.37;;
73599;SDS011;61877;48.246;9.220;2023-09-30T09:31:23;11.07;;;3.45;;
73599;SDS011;61877;48.246;9.220;2023-09-30T09:33:50;10.68;;;3.35;;
73599;SDS011;61877;48.246;9.220;2023-09-30T09:36:15;10.53;;;3.23;;
73599;SDS011;61877;48.246;9.220;2023-09-30T09:38:44;9.98;;;3.50;;
73599;SDS011;61877;48.246;9.220;2023-09-30T09:41:10;11.43;;;3.43;;
73599;SDS011;61877;48.246;9.220;2023-09-30T09:43:36;11.10;;;3.63;;
73599;SDS011;61877;48.246;9.220;2023-09-30T09:46:01;10.83;;;3.70;;
73599;SDS011;61877;48.246;9.220;2023-09-30T09:48:33;10.85;;;3.88;;
73599;SDS011;61877;48.246;9.220;2023-09-30T09:50:59;11.32;;;3.80;;
73599;SDS011;61877;48.246;9.220;2023-09-30T09:53:26;13.90;;;4.40;;
73599;SDS011;61877;48.246;9.220;2023-09-30T09:55:55;12.73;;;4.80;;
73599;SDS011;61877;48.246;9.220;2023-09-30T09:58:21;12.77;;;4.15;;
73599;SDS011;61877;48.246;9.220;2023-09-30T10:00:49;12.40;;;4.40;;
73599;SDS011;61877;48.246;9.220;2023-09-30T10:03:15;12.43;;;4.50;;
73599;SDS011;61877;48.246;9.220;2023-09-30T10:05:42;13.50;;;4.40;;
73599;SDS011;61877;48.246;9.220;2023-09-30T10:08:10;12.43;;;4.30;;
73599;SDS011;61877;48.246;9.220;2023-09-30T10:10:39;12.32;;;4.25;;
73599;SDS011;61877;48.246;9.220;2023-09-30T10:13:05;12.73;;;4.40;;
73599;SDS011;61877;48.246;9.220;2023-09-30T10:15:39;11.57;;;4.10;;
73599;SDS011;61877;48.246;9.220;2023-09-30T10:18:05;12.83;;;4.40;;
73599;SDS011;61877;48.246;9.220;2023-09-30T10:20:32;12.73;;;4.40;;
73599;SDS011;61877;48.246;9.220;2023-09-30T10:25:48;12.32;;;4.18;;
73599;SDS011;61877;48.246;9.220;2023-09-30T10:28:36;12.00;;;4.22;;
73599;SDS011;61877;48.246;9.220;2023-09-30T10:31:10;11.57;;;3.93;;
73599;SDS011;61877;48.246;9.220;2023-09-30T10:33:37;12.65;;;4.40;;
73599;SDS011;61877;48.246;9.220;2023-09-30T10:36:42;11.57;;;4.35;;
73599;SDS011;61877;48.246;9.220;2023-09-30T10:39:19;12.13;;;4.60;;
73599;SDS011;61877;48.246;9.220;2023-09-30T10:45:42;12.53;;;4.07;;
73599;SDS011;61877;48.246;9.220;2023-09-30T10:51:13;12.45;;;4.32;;
73599;SDS011;61877;48.246;9.220;2023-09-30T10:53:43;10.90;;;4.20;;
73599;SDS011;61877;48.246;9.220;2023-09-30T10:56:12;11.90;;;4.38;;
73599;SDS011;61877;48.246;9.220;2023-09-30T10:58:38;13.60;;;4.50;;
73599;SDS011;61877;48.246;9.220;2023-09-30T11:01:04;12.68;;;4.65;;
73599;SDS011;61877;48.246;9.220;2023-09-30T11:03:30;12.43;;;4.53;;
73599;SDS011;61877;48.246;9.220;2023-09-30T11:05:55;14.00;;;4.50;;
73599;SDS011;61877;48.246;9.220;2023-09-30T11:08:21;13.30;;;4.70;;
73599;SDS011;61877;48.246;9.220;2023-09-30T11:10:47;11.82;;;4.30;;
73599;SDS011;61877;48.246;9.220;2023-09-30T11:13:14;11.53;;;4.40;;
73599;SDS011;61877;48.246;9.220;2023-09-30T11:15:39;11.80;;;4.47;;
73599;SDS011;61877;48.246;9.220;2023-09-30T11:27:30;12.38;;;4.78;;
73599;SDS011;61877;48.246;9.220;2023-09-30T11:32:58;13.80;;;4.68;;
73599;SDS011;61877;48.246;9.220;2023-09-30T11:35:27;12.32;;;4.70;;
73599;SDS011;61877;48.246;9.220;2023-09-30T11:37:55;13.55;;;4.68;;
73599;SDS011;61877;48.246;9.220;2023-09-30T11:40:21;12.87;;;4.30;;
73599;SDS011;61877;48.246;9.220;2023-09-30T11:45:34;13.10;;;5.00;;
73599;SDS011;61877;48.246;9.220;2023-09-30T11:47:59;12.05;;;4.32;;
73599;SDS011;61877;48.246;9.220;2023-09-30T11:50:24;13.40;;;4.80;;
73599;SDS011;61877;48.246;9.220;2023-09-30T11:52:50;12.23;;;4.57;;
73599;SDS011;61877;48.246;9.220;2023-09-30T11:55:15;13.03;;;4.87;;
73599;SDS011;61877;48.246;9.220;2023-09-30T11:57:40;13.17;;;4.90;;
73599;SDS011;61877;48.246;9.220;2023-09-30T12:00:06;14.07;;;5.20;;
73599;SDS011;61877;48.246;9.220;2023-09-30T12:02:34;13.07;;;4.53;;
73599;SDS011;61877;48.246;9.220;2023-09-30T12:04:59;11.48;;;5.00;;
73599;SDS011;61877;48.246;9.220;2023-09-30T12:07:24;14.07;;;5.17;;
73599;SDS011;61877;48.246;9.220;2023-09-30T12:09:50;13.87;;;5.20;;
73599;SDS011;61877;48.246;9.220;2023-09-30T12:12:15;15.27;;;5.70;;
73599;SDS011;61877;48.246;9.220;2023-09-30T12:14:40;14.33;;;5.10;;
73599;SDS011;61877;48.246;9.220;2023-09-30T12:17:06;14.33;;;4.90;;
73599;SDS011;61877;48.246;9.220;2023-09-30T12:19:33;12.10;;;4.93;;
73599;SDS011;61877;48.246;9.220;2023-09-30T12:21:58;13.48;;;4.80;;
73599;SDS011;61877;48.246;9.220;2023-09-30T12:24:23;13.67;;;5.20;;
73599;SDS011;61877;48.246;9.220;2023-09-30T12:26:49;13.57;;;4.90;;
73599;SDS011;61877;48.246;9.220;2023-09-30T12:29:15;13.82;;;5.00;;
73599;SDS011;61877;48.246;9.220;2023-09-30T12:31:41;13.90;;;5.28;;
73599;SDS011;61877;48.246;9.220;2023-09-30T12:34:07;13.27;;;5.20;;
73599;SDS011;61877;48.246;9.220;2023-09-30T12:36:33;13.63;;;4.80;;
73599;SDS011;61877;48.246;9.220;2023-09-30T12:38:59;12.40;;;4.90;;
73599;SDS011;61877;48.246;9.220;2023-09-30T12:41:24;15.07;;;5.50;;
73599;SDS011;61877;48.246;9.220;2023-09-30T12:43:49;14.43;;;5.27;;
73599;SDS011;61877;48.246;9.220;2023-09-30T12:46:15;13.87;;;4.97;;
73599;SDS011;61877;48.246;9.220;2023-09-30T12:48:40;14.07;;;5.40;;
73599;SDS011;61877;48.246;9.220;2023-09-30T12:51:05;13.07;;;5.23;;
73599;SDS011;61877;48.246;9.220;2023-09-30T12:53:32;13.93;;;5.47;;
73599;SDS011;61877;48.246;9.220;2023-09-30T12:56:00;13.93;;;5.20;;
73599;SDS011;61877;48.246;9.220;2023-09-30T12:58:26;14.13;;;5.30;;
73599;SDS011;61877;48.246;9.220;2023-09-30T13:00:51;14.80;;;5.60;;
73599;SDS011;61877;48.246;9.220;2023-09-30T13:03:16;13.90;;;5.00;;
73599;SDS011;61877;48.246;9.220;2023-09-30T13:05:42;13.53;;;5.10;;
73599;SDS011;61877;48.246;9.220;2023-09-30T13:08:07;15.17;;;5.37;;
73599;SDS011;61877;48.246;9.220;2023-09-30T13:10:34;12.00;;;4.50;;
73599;SDS011;61877;48.246;9.220;2023-09-30T13:12:59;13.55;;;5.28;;
73599;SDS011;61877;48.246;9.220;2023-09-30T13:15:25;12.67;;;4.80;;
73599;SDS011;61877;48.246;9.220;2023-09-30T13:17:52;11.77;;;4.90;;
73599;SDS011;61877;48.246;9.220;2023-09-30T13:20:17;14.05;;;5.35;;
73599;SDS011;61877;48.246;9.220;2023-09-30T13:22:43;14.23;;;5.73;;
73599;SDS011;61877;48.246;9.220;2023-09-30T13:25:09;12.25;;;4.88;;
73599;SDS011;61877;48.246;9.220;2023-09-30T13:27:35;12.17;;;5.17;;
73599;SDS011;61877;48.246;9.220;2023-09-30T13:30:01;12.32;;;5.13;;
73599;SDS011;61877;48.246;9.220;2023-09-30T13:32:26;13.57;;;4.90;;
73599;SDS011;61877;48.246;9.220;2023-09-30T13:34:52;14.80;;;5.40;;
73599;SDS011;61877;48.246;9.220;2023-09-30T13:37:17;13.23;;;4.80;;
73599;SDS011;61877;48.246;9.220;2023-09-30T13:39:43;12.50;;;4.87;;
73599;SDS011;61877;48.246;9.220;2023-09-30T13:42:08;13.53;;;5.27;;
73599;SDS011;61877;48.246;9.220;2023-09-30T13:44:35;15.45;;;5.60;;
73599;SDS011;61877;48.246;9.220;2023-09-30T13:47:00;14.57;;;5.67;;
73599;SDS011;61877;48.246;9.220;2023-09-30T13:49:26;13.77;;;5.30;;
73599;SDS011;61877;48.246;9.220;2023-09-30T13:51:51;15.50;;;6.20;;
73599;SDS011;61877;48.246;9.220;2023-09-30T13:54:16;15.43;;;5.60;;
73599;SDS011;61877;48.246;9.220;2023-09-30T13:56:42;12.77;;;5.20;;
73599;SDS011;61877;48.246;9.220;2023-09-30T13:59:07;14.63;;;6.03;;
73599;SDS011;61877;48.246;9.220;2023-09-30T14:01:34;16.02;;;5.75;;
73599;SDS011;61877;48.246;9.220;2023-09-30T14:03:59;15.27;;;5.60;;
73599;SDS011;61877;48.246;9.220;2023-09-30T14:06:25;15.57;;;5.90;;
73599;SDS011;61877;48.246;9.220;2023-09-30T14:08:50;13.83;;;5.80;;
73599;SDS011;61877;48.246;9.220;2023-09-30T14:11:15;13.87;;;5.90;;
73599;SDS011;61877;48.246;9.220;2023-09-30T14:13:41;13.33;;;5.93;;
73599;SDS011;61877;48.246;9.220;2023-09-30T14:16:06;15.07;;;5.70;;
73599;SDS011;61877;48.246;9.220;2023-09-30T14:18:33;15.53;;;6.00;;
73599;SDS011;61877;48.246;9.220;2023-09-30T14:20:59;12.88;;;5.65;;
73599;SDS011;61877;48.246;9.220;2023-09-30T14:23:24;13.17;;;6.20;;
73599;SDS011;61877;48.246;9.220;2023-09-30T14:25:49;13.53;;;6.30;;
73599;SDS011;61877;48.246;9.220;2023-09-30T14:37:52;13.23;;;5.57;;
73599;SDS011;61877;48.246;9.220;2023-09-30T14:40:17;12.50;;;5.30;;
73599;SDS011;61877;48.246;9.220;2023-09-30T14:42:43;12.47;;;5.40;;
73599;SDS011;61877;48.246;9.220;2023-09-30T14:45:08;13.15;;;5.10;;
73599;SDS011;61877;48.246;9.220;2023-09-30T14:47:34;11.77;;;5.00;;
73599;SDS011;61877;48.246;9.220;2023-09-30T14:49:59;14.10;;;5.20;;
73599;SDS011;61877;48.246;9.220;2023-09-30T14:52:25;12.82;;;5.35;;
73599;SDS011;61877;48.246;9.220;2023-09-30T14:54:51;11.70;;;4.80;;
73599;SDS011;61877;48.246;9.220;2023-09-30T14:57:17;12.40;;;5.20;;
73599;SDS011;61877;48.246;9.220;2023-09-30T14:59:42;11.87;;;5.00;;
73599;SDS011;61877;48.246;9.220;2023-09-30T15:02:07;11.30;;;4.83;;
73599;SDS011;61877;48.246;9.220;2023-09-30T15:04:33;11.47;;;4.73;;
73599;SDS011;61877;48.246;9.220;2023-09-30T15:06:59;11.15;;;4.70;;
73599;SDS011;61877;48.246;9.220;2023-09-30T15:09:24;11.23;;;4.80;;
73599;SDS011;61877;48.246;9.220;2023-09-30T15:11:51;14.87;;;5.20;;
73599;SDS011;61877;48.246;9.220;2023-09-30T15:14:16;13.32;;;5.13;;
73599;SDS011;61877;48.246;9.220;2023-09-30T15:16:41;12.43;;;4.77;;
73599;SDS011;61877;48.246;9.220;2023-09-30T15:19:07;12.27;;;4.60;;
73599;SDS011;61877;48.246;9.220;2023-09-30T15:21:32;12.83;;;5.20;;
73599;SDS011;61877;48.246;9.220;2023-09-30T15:23:58;11.60;;;4.80;;
73599;SDS011;61877;48.246;9.220;2023-09-30T15:26:23;12.33;;;4.97;;
73599;SDS011;61877;48.246;9.220;2023-09-30T15:28:50;11.67;;;5.23;;
73599;SDS011;61877;48.246;9.220;2023-09-30T15:31:15;11.70;;;5.00;;
73599;SDS011;61877;48.246;9.220;2023-09-30T15:33:41;12.67;;;5.23;;
73599;SDS011;61877;48.246;9.220;2023-09-30T15:36:09;11.30;;;4.93;;
73599;SDS011;61877;48.246;9.220;2023-09-30T15:38:35;11.68;;;5.13;;
73599;SDS011;61877;48.246;9.220;2023-09-30T15:41:00;11.97;;;5.20;;
73599;SDS011;61877;48.246;9.220;2023-09-30T15:43:25;11.30;;;5.00;;
73599;SDS011;61877;48.246;9.220;2023-09-30T15:45:52;11.10;;;4.73;;
73599;SDS011;61877;48.246;9.220;2023-09-30T15:48:18;14.43;;;5.00;;
73599;SDS011;61877;48.246;9.220;2023-09-30T15:50:43;10.70;;;4.70;;
73599;SDS011;61877;48.246;9.220;2023-09-30T15:53:08;12.40;;;5.23;;
73599;SDS011;61877;48.246;9.220;2023-09-30T15:55:34;11.85;;;4.82;;
73599;SDS011;61877;48.246;9.220;2023-09-30T15:57:59;10.40;;;4.60;;
73599;SDS011;61877;48.246;9.220;2023-09-30T16:00:25;11.17;;;4.60;;
73599;SDS011;61877;48.246;9.220;2023-09-30T16:02:51;12.00;;;5.13;;
73599;SDS011;61877;48.246;9.220;2023-09-30T16:05:17;11.85;;;4.90;;
73599;SDS011;61877;48.246;9.220;2023-09-30T16:07:42;13.40;;;4.57;;
73599;SDS011;61877;48.246;9.220;2023-09-30T16:10:08;14.40;;;4.60;;
73599;SDS011;61877;48.246;9.220;2023-09-30T16:12:33;10.90;;;4.10;;
73599;SDS011;61877;48.246;9.220;2023-09-30T16:14:58;10.33;;;4.47;;
73599;SDS011;61877;48.246;9.220;2023-09-30T16:17:24;12.83;;;4.70;;
73599;SDS011;61877;48.246;9.220;2023-09-30T16:19:50;11.85;;;4.28;;
73599;SDS011;61877;48.246;9.220;2023-09-30T16:22:16;12.17;;;4.70;;
73599;SDS011;61877;48.246;9.220;2023-09-30T16:24:41;13.05;;;4.47;;
73599;SDS011;61877;48.246;9.220;2023-09-30T16:27:07;12.17;;;4.13;;
73599;SDS011;61877;48.246;9.220;2023-09-30T18:22:06;14.10;;;4.75;;
73599;SDS011;61877;48.246;9.220;2023-09-30T18:24:33;11.35;;;4.10;;
73599;SDS011;61877;48.246;9.220;2023-09-30T18:26:59;13.10;;;4.50;;
73599;SDS011;61877;48.246;9.220;2023-09-30T18:29:24;12.35;;;3.90;;
73599;SDS011;61877;48.246;9.220;2023-09-30T18:31:56;12.40;;;4.60;;
73599;SDS011;61877;48.246;9.220;2023-09-30T18:34:22;12.30;;;4.75;;
73599;SDS011;61877;48.246;9.220;2023-09-30T18:36:50;11.60;;;4.28;;
73599;SDS011;61877;48.246;9.220;2023-09-30T18:39:17;11.87;;;4.30;;
73599;SDS011;61877;48.246;9.220;2023-09-30T18:41:42;11.02;;;4.43;;
73599;SDS011;61877;48.246;9.220;2023-09-30T18:44:08;12.20;;;4.03;;
73599;SDS011;61877;48.246;9.220;2023-09-30T18:46:38;14.02;;;4.68;;
73599;SDS011;61877;48.246;9.220;2023-09-30T18:49:03;12.23;;;4.10;;
73599;SDS011;61877;48.246;9.220;2023-09-30T18:51:29;14.40;;;4.47;;
73599;SDS011;61877;48.246;9.220;2023-09-30T18:53:58;13.45;;;5.07;;
73599;SDS011;61877;48.246;9.220;2023-09-30T18:56:25;12.93;;;4.83;;
73599;SDS011;61877;48.246;9.220;2023-09-30T18:58:50;12.57;;;4.43;;
73599;SDS011;61877;48.246;9.220;2023-09-30T19:01:16;11.90;;;4.07;;
73599;SDS011;61877;48.246;9.220;2023-09-30T19:03:42;11.73;;;4.25;;
73599;SDS011;61877;48.246;9.220;2023-09-30T19:06:07;13.43;;;4.47;;
73599;SDS011;61877;48.246;9.220;2023-09-30T19:08:33;13.40;;;4.70;;
73599;SDS011;61877;48.246;9.220;2023-09-30T19:11:00;14.77;;;5.23;;
73599;SDS011;61877;48.246;9.220;2023-09-30T19:13:27;12.90;;;4.82;;
73599;SDS011;61877;48.246;9.220;2023-09-30T19:15:52;12.80;;;5.10;;
73599;SDS011;61877;48.246;9.220;2023-09-30T19:18:18;14.38;;;5.40;;
73599;SDS011;61877;48.246;9.220;2023-09-30T19:20:43;13.17;;;5.00;;
73599;SDS011;61877;48.246;9.220;2023-09-30T19:23:09;13.45;;;5.40;;
73599;SDS011;61877;48.246;9.220;2023-09-30T19:25:35;11.70;;;4.30;;
73599;SDS011;61877;48.246;9.220;2023-09-30T19:28:00;13.00;;;4.78;;
73599;SDS011;61877;48.246;9.220;2023-09-30T19:30:27;12.27;;;4.60;;
73599;SDS011;61877;48.246;9.220;2023-09-30T19:32:53;12.25;;;4.20;;
73599;SDS011;61877;48.246;9.220;2023-09-30T19:35:18;12.20;;;4.40;;
73599;SDS011;61877;48.246;9.220;2023-09-30T19:37:43;14.97;;;4.43;;
73599;SDS011;61877;48.246;9.220;2023-09-30T19:40:09;12.05;;;4.40;;
73599;SDS011;61877;48.246;9.220;2023-09-30T19:42:35;13.47;;;4.30;;
73599;SDS011;61877;48.246;9.220;2023-09-30T19:45:01;10.88;;;4.05;;
73599;SDS011;61877;48.246;9.220;2023-09-30T19:47:28;11.80;;;4.40;;
73599;SDS011;61877;48.246;9.220;2023-09-30T19:49:53;12.52;;;4.70;;
73599;SDS011;61877;48.246;9.220;2023-09-30T19:52:19;15.10;;;4.00;;
73599;SDS011;61877;48.246;9.220;2023-09-30T19:54:44;10.98;;;4.03;;
73599;SDS011;61877;48.246;9.220;2023-09-30T19:57:10;12.83;;;4.47;;
73599;SDS011;61877;48.246;9.220;2023-09-30T19:59:36;12.07;;;4.55;;
73599;SDS011;61877;48.246;9.220;2023-09-30T20:02:03;12.82;;;4.45;;
73599;SDS011;61877;48.246;9.220;2023-09-30T20:04:29;12.43;;;4.60;;
73599;SDS011;61877;48.246;9.220;2023-09-30T20:06:55;14.02;;;4.80;;
73599;SDS011;61877;48.246;9.220;2023-09-30T20:09:20;12.13;;;4.87;;
73599;SDS011;61877;48.246;9.220;2023-09-30T20:11:46;12.87;;;4.67;;
73599;SDS011;61877;48.246;9.220;2023-09-30T20:14:12;13.98;;;4.30;;
73599;SDS011;61877;48.246;9.220;2023-09-30T20:16:37;15.80;;;5.13;;
73599;SDS011;61877;48.246;9.220;2023-09-30T20:19:03;13.63;;;4.83;;
73599;SDS011;61877;48.246;9.220;2023-09-30T20:21:29;13.40;;;5.18;;
73599;SDS011;61877;48.246;9.220;2023-09-30T20:23:55;12.87;;;4.90;;
73599;SDS011;61877;48.246;9.220;2023-09-30T20:26:20;13.20;;;5.57;;
73599;SDS011;61877;48.246;9.220;2023-09-30T20:28:46;12.60;;;4.40;;
73599;SDS011;61877;48.246;9.220;2023-09-30T20:31:11;11.47;;;4.50;;
73599;SDS011;61877;48.246;9.220;2023-09-30T20:33:36;12.40;;;4.87;;
73599;SDS011;61877;48.246;9.220;2023-09-30T20:36:02;12.27;;;4.60;;
73599;SDS011;61877;48.246;9.220;2023-09-30T20:38:29;13.00;;;4.43;;
73599;SDS011;61877;48.246;9.220;2023-09-30T20:40:55;15.00;;;4.68;;
73599;SDS011;61877;48.246;9.220;2023-09-30T20:43:20;12.90;;;4.90;;
73599;SDS011;61877;48.246;9.220;2023-09-30T20:45:45;14.30;;;5.63;;
73599;SDS011;61877;48.246;9.220;2023-09-30T20:48:11;13.52;;;4.70;;
73599;SDS011;61877;48.246;9.220;2023-09-30T20:50:36;14.23;;;4.97;;
73599;SDS011;61877;48.246;9.220;2023-09-30T20:53:02;12.83;;;4.90;;
73599;SDS011;61877;48.246;9.220;2023-09-30T20:55:29;14.15;;;4.82;;
73599;SDS011;61877;48.246;9.220;2023-09-30T20:57:57;12.52;;;4.60;;
73599;SDS011;61877;48.246;9.220;2023-09-30T21:00:22;14.77;;;5.20;;
73599;SDS011;61877;48.246;9.220;2023-09-30T21:02:47;12.93;;;4.77;;
73599;SDS011;61877;48.246;9.220;2023-09-30T21:05:13;12.63;;;4.87;;
73599;SDS011;61877;48.246;9.220;2023-09-30T21:07:38;13.70;;;4.70;;
73599;SDS011;61877;48.246;9.220;2023-09-30T21:10:04;14.50;;;4.82;;
73599;SDS011;61877;48.246;9.220;2023-09-30T21:12:32;12.30;;;4.30;;
73599;SDS011;61877;48.246;9.220;2023-09-30T21:14:57;12.45;;;4.75;;
73599;SDS011;61877;48.246;9.220;2023-09-30T21:17:22;12.20;;;5.17;;
73599;SDS011;61877;48.246;9.220;2023-09-30T21:19:48;14.27;;;5.00;;
73599;SDS011;61877;48.246;9.220;2023-09-30T21:22:13;14.03;;;5.00;;
73599;SDS011;61877;48.246;9.220;2023-09-30T21:24:39;15.07;;;4.83;;
73599;SDS011;61877;48.246;9.220;2023-09-30T21:27:04;13.25;;;4.80;;
73599;SDS011;61877;48.246;9.220;2023-09-30T21:29:31;12.63;;;4.47;;
73599;SDS011;61877;48.246;9.220;2023-09-30T21:31:56;11.73;;;4.55;;
73599;SDS011;61877;48.246;9.220;2023-09-30T21:34:22;13.23;;;5.00;;
73599;SDS011;61877;48.246;9.220;2023-09-30T21:36:50;13.60;;;4.90;;
73599;SDS011;61877;48.246;9.220;2023-09-30T21:39:15;12.43;;;4.80;;
73599;SDS011;61877;48.246;9.220;2023-09-30T21:41:41;12.17;;;4.87;;
73599;SDS011;61877;48.246;9.220;2023-09-30T21:44:06;13.30;;;5.27;;
73599;SDS011;61877;48.246;9.220;2023-09-30T21:46:33;14.75;;;5.28;;
73599;SDS011;61877;48.246;9.220;2023-09-30T21:48:59;13.32;;;4.63;;
73599;SDS011;61877;48.246;9.220;2023-09-30T21:51:24;13.37;;;4.40;;
73599;SDS011;61877;48.246;9.220;2023-09-30T21:53:50;15.50;;;4.73;;
73599;SDS011;61877;48.246;9.220;2023-09-30T21:56:15;12.97;;;4.70;;
73599;SDS011;61877;48.246;9.220;2023-09-30T21:58:40;12.90;;;4.88;;
73599;SDS011;61877;48.246;9.220;2023-09-30T22:01:06;11.77;;;4.30;;
73599;SDS011;61877;48.246;9.220;2023-09-30T22:03:33;15.27;;;4.27;;
73599;SDS011;61877;48.246;9.220;2023-09-30T22:05:58;12.55;;;4.65;;
73599;SDS011;61877;48.246;9.220;2023-09-30T22:08:24;14.23;;;4.70;;
73599;SDS011;61877;48.246;9.220;2023-09-30T22:10:50;15.00;;;4.40;;
73599;SDS011;61877;48.246;9.220;2023-09-30T22:13:16;14.40;;;4.90;;
73599;SDS011;61877;48.246;9.220;2023-09-30T22:15:42;11.67;;;4.43;;
73599;SDS011;61877;48.246;9.220;2023-09-30T22:18:07;12.97;;;4.60;;
73599;SDS011;61877;48.246;9.220;2023-09-30T22:20:34;12.93;;;4.82;;
73599;SDS011;61877;48.246;9.220;2023-09-30T22:23:00;12.75;;;4.80;;
73599;SDS011;61877;48.246;9.220;2023-09-30T22:25:25;12.60;;;4.90;;
73599;SDS011;61877;48.246;9.220;2023-09-30T22:27:51;14.45;;;5.10;;
73599;SDS011;61877;48.246;9.220;2023-09-30T22:30:17;11.77;;;4.70;;
73599;SDS011;61877;48.246;9.220;2023-09-30T22:32:42;14.65;;;4.88;;
73599;SDS011;61877;48.246;9.220;2023-09-30T22:35:08;15.47;;;4.93;;
73599;SDS011;61877;48.246;9.220;2023-09-30T22:37:35;14.83;;;5.23;;
73599;SDS011;61877;48.246;9.220;2023-09-30T22:40:00;14.27;;;4.80;;
73599;SDS011;61877;48.246;9.220;2023-09-30T22:42:25;13.60;;;4.73;;
73599;SDS011;61877;48.246;9.220;2023-09-30T22:44:51;13.97;;;4.90;;
73599;SDS011;61877;48.246;9.220;2023-09-30T22:47:16;12.27;;;4.50;;
73599;SDS011;61877;48.246;9.220;2023-09-30T22:49:42;12.47;;;4.50;;
73599;SDS011;61877;48.246;9.220;2023-09-30T22:52:07;13.27;;;5.17;;
73599;SDS011;61877;48.246;9.220;2023-09-30T22:54:34;11.03;;;4.43;;
73599;SDS011;61877;48.246;9.220;2023-09-30T22:56:59;12.30;;;4.57;;
73599;SDS011;61877;48.246;9.220;2023-09-30T22:59:25;13.48;;;5.03;;